createdAt,value
2023-09-26T00:00:20.841Z,99647.09
2023-09-26T00:02:47.967Z,99649.75
2023-09-26T00:05:14.982Z,99656.31
2023-09-26T00:07:43.790Z,99653.41
2023-09-26T00:10:14.504Z,99647.59
2023-09-26T00:12:41.718Z,99654.44
2023-09-26T00:15:09.480Z,99659.00
2023-09-26T00:17:36.561Z,99654.75
2023-09-26T00:20:22.946Z,99653.81
2023-09-26T00:22:51.222Z,99657.19
2023-09-26T00:25:18.125Z,99654.81
2023-09-26T00:27:45.342Z,99651.72
2023-09-26T00:30:13.608Z,99646.34
2023-09-26T00:32:40.890Z,99650.53
2023-09-26T00:35:14.659Z,99644.78
2023-09-26T00:37:42.441Z,99644.69
2023-09-26T00:40:13.822Z,99645.78
2023-09-26T00:42:40.911Z,99651.03
2023-09-26T00:45:08.660Z,99654.25
2023-09-26T00:47:36.637Z,99657.63
2023-09-26T00:50:04.611Z,99658.97
2023-09-26T00:52:31.901Z,99655.13
2023-09-26T00:55:00.430Z,99654.78
2023-09-26T00:57:28.939Z,99652.03
2023-09-26T00:59:55.797Z,99651.28
2023-09-26T01:02:23.302Z,99655.41
2023-09-26T01:04:50.714Z,99659.41
2023-09-26T01:07:17.608Z,99655.13
2023-09-26T01:09:44.589Z,99642.63
2023-09-26T01:12:12.362Z,99642.53
2023-09-26T01:14:40.630Z,99645.78
2023-09-26T01:17:07.788Z,99647.22
2023-09-26T01:19:34.891Z,99639.94
2023-09-26T01:22:01.966Z,99644.72
2023-09-26T01:24:30.740Z,99640.66
2023-09-26T01:26:58.013Z,99649.38
2023-09-26T01:29:25.460Z,99641.97
2023-09-26T01:31:52.558Z,99638.03
2023-09-26T01:34:19.581Z,99643.28
2023-09-26T01:36:46.513Z,99641.00
2023-09-26T01:39:14.019Z,99643.19
2023-09-26T01:41:42.373Z,99644.97
2023-09-26T01:44:10.054Z,99632.41
2023-09-26T01:46:37.132Z,99626.56
2023-09-26T01:49:04.126Z,99632.53
2023-09-26T01:51:31.017Z,99625.47
2023-09-26T01:53:57.841Z,99622.72
2023-09-26T01:56:25.651Z,99621.31
2023-09-26T01:58:54.201Z,99622.38
2023-09-26T02:01:21.365Z,99620.78
2023-09-26T02:03:48.627Z,99621.19
2023-09-26T02:06:15.607Z,99619.25
2023-09-26T02:08:42.521Z,99622.22
2023-09-26T02:11:09.457Z,99621.53
2023-09-26T02:13:36.789Z,99626.78
2023-09-26T02:16:11.174Z,99617.22
2023-09-26T02:18:38.160Z,99615.78
2023-09-26T02:21:05.214Z,99613.41
2023-09-26T02:23:33.891Z,99614.09
2023-09-26T02:26:00.785Z,99615.19
2023-09-26T02:28:27.670Z,99618.91
2023-09-26T02:30:54.828Z,99608.84
2023-09-26T02:33:23.200Z,99610.78
2023-09-26T02:35:50.329Z,99612.19
2023-09-26T02:38:17.218Z,99611.72
2023-09-26T02:40:44.754Z,99612.16
2023-09-26T02:43:11.605Z,99610.50
2023-09-26T02:45:38.637Z,99608.69
2023-09-26T02:48:06.987Z,99604.25
2023-09-26T02:50:35.250Z,99601.72
2023-09-26T02:53:02.126Z,99600.06
2023-09-26T02:55:29.127Z,99593.00
2023-09-26T02:57:56.145Z,99595.75
2023-09-26T03:00:23.140Z,99599.22
2023-09-26T03:02:50.266Z,99599.09
2023-09-26T03:05:18.196Z,99602.09
2023-09-26T03:07:46.879Z,99608.56
2023-09-26T03:10:15.431Z,99607.13
2023-09-26T03:12:45.039Z,99604.38
2023-09-26T03:15:12.490Z,99607.13
2023-09-26T03:17:39.444Z,99608.31
2023-09-26T03:20:09.926Z,99606.88
2023-09-26T03:22:37.118Z,99598.06
2023-09-26T03:25:07.073Z,99603.81
2023-09-26T03:27:34.303Z,99600.44
2023-09-26T03:30:01.319Z,99601.50
2023-09-26T03:32:28.730Z,99602.69
2023-09-26T03:34:55.799Z,99608.53
2023-09-26T03:37:23.297Z,99597.66
2023-09-26T03:39:50.376Z,99599.91
2023-09-26T03:42:18.864Z,99590.81
2023-09-26T03:44:45.729Z,99591.66
2023-09-26T03:47:13.022Z,99599.66
2023-09-26T03:49:39.854Z,99592.44
2023-09-26T03:52:06.885Z,99598.88
2023-09-26T03:54:35.444Z,99602.25
2023-09-26T03:57:02.700Z,99592.44
2023-09-26T03:59:30.985Z,99600.56
2023-09-26T04:01:57.993Z,99592.81
2023-09-26T04:04:25.117Z,99590.78
2023-09-26T04:06:52.146Z,99589.69
2023-09-26T04:09:19.156Z,99593.63
2023-09-26T04:11:46.028Z,99592.06
2023-09-26T04:14:13.136Z,99585.75
2023-09-26T04:16:41.397Z,99598.66
2023-09-26T04:19:10.092Z,99583.91
2023-09-26T04:21:37.253Z,99583.75
2023-09-26T04:24:05.749Z,99589.03
2023-09-26T04:26:33.059Z,99587.47
2023-09-26T04:29:00.651Z,99592.28
2023-09-26T04:31:27.657Z,99588.09
2023-09-26T04:33:56.426Z,99591.59
2023-09-26T04:36:23.481Z,99583.44
2023-09-26T04:38:50.718Z,99579.59
2023-09-26T04:41:17.748Z,99579.59
2023-09-26T04:43:44.658Z,99574.19
2023-09-26T04:46:13.111Z,99582.94
2023-09-26T04:48:40.428Z,99582.34
2023-09-26T04:51:11.324Z,99582.34
2023-09-26T04:53:38.222Z,99573.81
2023-09-26T04:56:05.772Z,99580.53
2023-09-26T04:58:33.851Z,99579.28
2023-09-26T05:01:10.982Z,99584.28
2023-09-26T05:03:38.019Z,99580.34
2023-09-26T05:06:05.296Z,99585.72
2023-09-26T05:08:33.604Z,99584.03
2023-09-26T05:11:00.499Z,99583.31
2023-09-26T05:13:27.398Z,99583.03
2023-09-26T05:15:54.299Z,99578.84
2023-09-26T05:18:23.367Z,99586.47
2023-09-26T05:20:50.346Z,99583.34
2023-09-26T05:23:17.264Z,99581.53
2023-09-26T05:25:45.648Z,99585.59
2023-09-26T05:28:12.597Z,99583.72
2023-09-26T05:30:39.779Z,99591.50
2023-09-26T05:33:06.830Z,99591.81
2023-09-26T05:35:33.995Z,99593.59
2023-09-26T05:38:01.052Z,99585.13
2023-09-26T05:40:28.049Z,99590.66
2023-09-26T05:42:56.472Z,99593.66
2023-09-26T05:45:23.749Z,99592.47
2023-09-26T05:47:50.757Z,99585.72
2023-09-26T05:50:17.871Z,99590.59
2023-09-26T05:52:44.967Z,99592.81
2023-09-26T05:55:12.010Z,99598.44
2023-09-26T05:57:39.612Z,99597.94
2023-09-26T06:00:14.662Z,99595.53
2023-09-26T06:02:41.886Z,99590.09
2023-09-26T06:05:09.549Z,99591.38
2023-09-26T06:07:36.840Z,99592.22
2023-09-26T06:10:09.728Z,99598.06
2023-09-26T06:12:37.594Z,99598.00
2023-09-26T06:15:07.108Z,99600.31
2023-09-26T06:17:35.712Z,99606.88
2023-09-26T06:20:02.907Z,99606.69
2023-09-26T06:22:29.837Z,99609.22
2023-09-26T06:24:59.841Z,99607.72
2023-09-26T06:27:27.688Z,99608.63
2023-09-26T06:29:56.926Z,99608.00
2023-09-26T06:32:24.943Z,99604.84
2023-09-26T06:34:58.664Z,99595.94
2023-09-26T06:37:25.722Z,99602.31
2023-09-26T06:39:53.042Z,99598.94
2023-09-26T06:42:20.086Z,99601.25
2023-09-26T06:44:49.587Z,99600.13
2023-09-26T06:47:17.612Z,99598.66
2023-09-26T06:49:44.849Z,99598.34
2023-09-26T06:52:13.126Z,99596.91
2023-09-26T06:54:40.112Z,99588.81
2023-09-26T06:57:09.254Z,99595.69
2023-09-26T06:59:36.378Z,99599.69
2023-09-26T07:02:04.061Z,99596.69
2023-09-26T07:04:31.535Z,99598.34
2023-09-26T07:07:00.664Z,99595.28
2023-09-26T07:09:28.996Z,99592.69
2023-09-26T07:11:56.577Z,99592.06
2023-09-26T07:14:23.432Z,99595.56
2023-09-26T07:16:52.065Z,99595.47
2023-09-26T07:19:19.132Z,99591.69
2023-09-26T07:21:46.121Z,99594.84
2023-09-26T07:24:13.154Z,99603.31
2023-09-26T07:26:41.562Z,99601.81
2023-09-26T07:29:09.634Z,99599.50
2023-09-26T07:31:37.039Z,99593.81
2023-09-26T07:34:04.262Z,99599.16
2023-09-26T07:36:33.332Z,99597.00
2023-09-26T07:39:00.692Z,99606.81
2023-09-26T07:41:27.854Z,99605.00
2023-09-26T07:43:56.778Z,99605.00
2023-09-26T07:46:23.932Z,99608.47
2023-09-26T07:48:51.310Z,99608.81
2023-09-26T07:51:18.319Z,99611.28
2023-09-26T07:53:45.570Z,99603.50
2023-09-26T07:56:12.698Z,99607.66
2023-09-26T07:58:39.650Z,99612.78
2023-09-26T08:01:09.763Z,99608.75
2023-09-26T08:03:40.595Z,99613.31
2023-09-26T08:06:08.360Z,99611.66
2023-09-26T08:08:36.058Z,99607.41
2023-09-26T08:11:09.943Z,99604.53
2023-09-26T08:13:37.812Z,99605.03
2023-09-26T08:16:05.970Z,99601.66
2023-09-26T08:18:34.536Z,99600.81
2023-09-26T08:21:01.438Z,99599.63
2023-09-26T08:23:29.619Z,99599.53
2023-09-26T08:25:57.555Z,99599.81
2023-09-26T08:28:26.992Z,99591.28
2023-09-26T08:30:58.244Z,99597.97
2023-09-26T08:33:25.546Z,99594.88
2023-09-26T08:35:56.899Z,99593.53
2023-09-26T08:38:24.008Z,99592.97
2023-09-26T08:40:57.678Z,99589.75
2023-09-26T08:43:25.958Z,99584.22
2023-09-26T08:45:54.009Z,99586.78
2023-09-26T08:48:21.673Z,99579.13
2023-09-26T08:50:51.173Z,99576.09
2023-09-26T08:53:19.687Z,99581.59
2023-09-26T08:55:52.958Z,99578.19
2023-09-26T08:58:21.937Z,99572.00
2023-09-26T09:00:49.213Z,99570.44
2023-09-26T09:03:16.281Z,99580.88
2023-09-26T09:05:43.679Z,99576.78
2023-09-26T09:08:19.916Z,99576.53
2023-09-26T09:10:53.721Z,99575.34
2023-09-26T09:13:29.489Z,99573.38
2023-09-26T09:16:13.865Z,99567.56
2023-09-26T09:18:43.853Z,99557.16
2023-09-26T09:21:29.097Z,99550.53
2023-09-26T09:24:00.036Z,99557.34
2023-09-26T09:26:31.414Z,99553.94
2023-09-26T09:29:00.440Z,99564.13
2023-09-26T09:31:29.128Z,99558.72
2023-09-26T09:33:57.692Z,99560.44
2023-09-26T09:36:24.859Z,99558.84
2023-09-26T09:38:52.053Z,99554.53
2023-09-26T09:41:21.234Z,99548.72
2023-09-26T09:43:48.234Z,99553.00
2023-09-26T09:46:17.784Z,99541.91
2023-09-26T09:48:46.359Z,99546.97
2023-09-26T09:51:14.767Z,99542.84
2023-09-26T09:53:55.377Z,99539.63
2023-09-26T09:56:26.337Z,99537.38
2023-09-26T09:59:03.342Z,99537.38
2023-09-26T10:01:31.435Z,99534.50
2023-09-26T10:03:59.229Z,99531.00
2023-09-26T10:06:26.834Z,99529.75
2023-09-26T10:08:56.137Z,99523.56
2023-09-26T10:11:27.351Z,99528.91
2023-09-26T10:13:54.247Z,99530.13
2023-09-26T10:16:21.639Z,99529.53
2023-09-26T10:18:51.785Z,99527.91
2023-09-26T10:21:26.875Z,99533.88
2023-09-26T10:24:27.611Z,99532.66
2023-09-26T10:29:33.760Z,99515.16
2023-09-26T10:32:06.229Z,99520.53
2023-09-26T10:34:53.119Z,99519.59
2023-09-26T10:37:22.079Z,99507.59
2023-09-26T10:39:49.549Z,99508.41
2023-09-26T10:44:51.812Z,99509.13
2023-09-26T10:47:20.967Z,99509.16
2023-09-26T10:49:47.867Z,99507.34
2023-09-26T10:52:15.503Z,99499.50
2023-09-26T10:54:43.219Z,99495.47
2023-09-26T10:57:22.178Z,99494.78
2023-09-26T10:59:50.482Z,99502.28
2023-09-26T11:02:17.656Z,99493.88
2023-09-26T11:04:45.272Z,99505.34
2023-09-26T11:07:13.220Z,99506.72
2023-09-26T11:09:42.115Z,99495.00
2023-09-26T11:12:09.475Z,99490.59
2023-09-26T11:14:37.790Z,99493.06
2023-09-26T11:17:07.729Z,99494.72
2023-09-26T11:19:35.989Z,99492.16
2023-09-26T11:22:03.079Z,99491.34
2023-09-26T11:24:32.726Z,99486.84
2023-09-26T11:27:04.086Z,99491.66
2023-09-26T11:29:34.904Z,99477.94
2023-09-26T11:32:05.462Z,99487.78
2023-09-26T11:34:35.532Z,99471.91
2023-09-26T11:37:02.467Z,99478.28
2023-09-26T11:39:29.408Z,99481.00
2023-09-26T11:42:04.169Z,99471.72
2023-09-26T11:44:31.975Z,99472.91
2023-09-26T11:46:59.824Z,99472.44
2023-09-26T11:49:29.769Z,99465.50
2023-09-26T11:51:57.116Z,99461.13
2023-09-26T11:54:24.007Z,99468.31
2023-09-26T11:56:53.519Z,99468.06
2023-09-26T11:59:20.438Z,99463.41
2023-09-26T12:01:47.630Z,99470.53
2023-09-26T12:04:15.243Z,99469.06
2023-09-26T12:06:43.784Z,99464.75
2023-09-26T12:09:20.403Z,99464.53
2023-09-26T12:11:47.484Z,99454.69
2023-09-26T12:14:17.936Z,99448.53
2023-09-26T12:16:51.829Z,99455.72
2023-09-26T12:19:19.331Z,99448.19
2023-09-26T12:21:48.222Z,99457.25
2023-09-26T12:24:15.257Z,99446.81
2023-09-26T12:26:42.791Z,99438.66
2023-09-26T12:29:10.342Z,99443.38
2023-09-26T12:31:37.389Z,99445.63
2023-09-26T12:34:04.657Z,99440.47
2023-09-26T12:36:31.569Z,99448.34
2023-09-26T12:39:00.915Z,99443.91
2023-09-26T12:41:28.110Z,99428.56
2023-09-26T12:43:56.302Z,99429.59
2023-09-26T12:46:23.468Z,99433.03
2023-09-26T12:48:50.392Z,99427.72
2023-09-26T12:51:17.606Z,99436.69
2023-09-26T12:53:45.583Z,99435.69
2023-09-26T12:56:13.787Z,99425.50
2023-09-26T12:58:40.815Z,99425.63
2023-09-26T13:01:07.723Z,99422.56
2023-09-26T13:03:34.649Z,99426.09
2023-09-26T13:06:01.922Z,99421.41
2023-09-26T13:08:28.778Z,99415.41
2023-09-26T13:10:55.753Z,99410.13
2023-09-26T13:13:24.835Z,99412.22
2023-09-26T13:15:52.345Z,99421.28
2023-09-26T13:18:19.390Z,99409.84
2023-09-26T13:20:46.751Z,99413.50
2023-09-26T13:23:13.860Z,99408.69
2023-09-26T13:25:40.916Z,99403.63
2023-09-26T13:28:09.470Z,99394.19
2023-09-26T13:30:39.992Z,99402.97
2023-09-26T13:33:08.140Z,99399.16
2023-09-26T13:35:35.169Z,99390.38
2023-09-26T13:38:04.782Z,99393.03
2023-09-26T13:40:32.396Z,99387.28
2023-09-26T13:42:59.243Z,99394.09
2023-09-26T13:45:26.292Z,99394.31
2023-09-26T13:47:54.910Z,99384.56
2023-09-26T13:50:21.822Z,99397.28
2023-09-26T13:52:49.020Z,99392.31
2023-09-26T13:55:16.087Z,99387.28
2023-09-26T13:57:42.922Z,99394.09
2023-09-26T14:00:10.996Z,99391.72
2023-09-26T14:02:40.750Z,99384.81
2023-09-26T14:07:40.485Z,99384.59
2023-09-26T14:10:08.381Z,99382.34
2023-09-26T14:12:35.537Z,99371.97
2023-09-26T14:15:02.441Z,99364.22
2023-09-26T14:17:29.506Z,99368.91
2023-09-26T14:19:56.544Z,99369.94
2023-09-26T14:22:25.148Z,99370.69
2023-09-26T14:24:52.698Z,99370.09
2023-09-26T14:27:19.718Z,99370.44
2023-09-26T14:29:46.699Z,99370.44
2023-09-26T14:32:13.649Z,99361.72
2023-09-26T14:34:40.738Z,99378.47
2023-09-26T14:37:07.866Z,99375.81
2023-09-26T14:39:36.466Z,99380.66
2023-09-26T14:42:03.368Z,99381.84
2023-09-26T14:44:30.589Z,99377.38
2023-09-26T14:46:57.584Z,99376.69
2023-09-26T14:49:24.822Z,99377.63
2023-09-26T14:51:51.729Z,99376.22
2023-09-26T14:54:18.627Z,99376.66
2023-09-26T14:56:47.832Z,99376.78
2023-09-26T14:59:14.889Z,99381.03
2023-09-26T15:01:41.906Z,99376.63
2023-09-26T15:04:09.057Z,99370.56
2023-09-26T15:06:37.108Z,99375.16
2023-09-26T15:09:04.570Z,99372.53
2023-09-26T15:11:31.595Z,99364.41
2023-09-26T15:13:59.959Z,99366.88
2023-09-26T15:16:27.059Z,99374.31
2023-09-26T15:18:53.956Z,99370.34
2023-09-26T15:21:20.808Z,99373.59
2023-09-26T15:23:48.783Z,99371.94
2023-09-26T15:26:15.629Z,99375.13
2023-09-26T15:28:42.662Z,99376.13
2023-09-26T15:31:11.607Z,99377.47
2023-09-26T15:33:38.688Z,99381.25
2023-09-26T15:36:05.893Z,99377.13
2023-09-26T15:38:32.849Z,99380.09
2023-09-26T15:41:15.333Z,99380.94
2023-09-26T15:43:43.534Z,99381.59
2023-09-26T15:46:11.895Z,99374.69
2023-09-26T15:48:38.981Z,99375.88
2023-09-26T15:51:12.156Z,99377.56
2023-09-26T15:53:40.569Z,99378.78
2023-09-26T15:56:07.635Z,99375.97
2023-09-26T15:58:34.880Z,99377.84
2023-09-26T16:01:01.784Z,99378.88
2023-09-26T16:03:30.218Z,99369.97
2023-09-26T16:05:57.161Z,99372.97
2023-09-26T16:08:24.127Z,99366.97
2023-09-26T16:10:51.077Z,99368.06
2023-09-26T16:13:18.063Z,99375.78
2023-09-26T16:15:48.177Z,99367.28
2023-09-26T16:18:16.091Z,99371.53
2023-09-26T16:20:44.554Z,99376.47
2023-09-26T16:23:11.787Z,99376.94
2023-09-26T16:25:40.466Z,99369.66
2023-09-26T16:28:07.936Z,99374.22
2023-09-26T16:30:34.982Z,99377.34
2023-09-26T16:33:02.393Z,99369.06
2023-09-26T16:35:30.306Z,99371.06
2023-09-26T16:37:58.803Z,99380.38
2023-09-26T16:40:25.875Z,99376.41
2023-09-26T16:42:52.834Z,99384.88
2023-09-26T16:45:19.790Z,99377.47
2023-09-26T16:47:47.707Z,99376.66
2023-09-26T16:50:15.194Z,99380.50
2023-09-26T16:52:42.491Z,99385.72
2023-09-26T16:55:11.238Z,99397.41
2023-09-26T16:57:38.094Z,99393.31
2023-09-26T17:00:06.175Z,99398.19
2023-09-26T17:02:33.329Z,99400.47
2023-09-26T17:05:00.826Z,99401.53
2023-09-26T17:07:28.162Z,99410.03
2023-09-26T17:09:56.814Z,99407.56
2023-09-26T17:12:25.203Z,99406.94
2023-09-26T17:14:52.210Z,99412.72
2023-09-26T17:17:19.317Z,99415.56
2023-09-26T17:19:46.325Z,99417.06
2023-09-26T17:22:13.414Z,99411.53
2023-09-26T17:24:40.283Z,99417.66
2023-09-26T17:27:07.314Z,99415.59
2023-09-26T17:29:35.662Z,99419.06
2023-09-26T17:32:02.713Z,99413.09
2023-09-26T17:34:29.683Z,99416.97
2023-09-26T17:36:56.510Z,99418.31
2023-09-26T17:39:24.942Z,99422.59
2023-09-26T17:41:51.911Z,99430.06
2023-09-26T17:44:18.920Z,99426.75
2023-09-26T17:46:48.320Z,99429.41
2023-09-26T17:49:15.380Z,99431.16
2023-09-26T17:51:42.261Z,99439.25
2023-09-26T17:54:09.258Z,99444.94
2023-09-26T17:56:36.278Z,99448.63
2023-09-26T17:59:03.693Z,99451.91
2023-09-26T18:01:30.899Z,99453.25
2023-09-26T18:03:59.222Z,99454.00
2023-09-26T18:06:28.317Z,99451.97
2023-09-26T18:08:58.258Z,99459.88
2023-09-26T18:11:25.334Z,99458.41
2023-09-26T18:13:52.570Z,99453.25
2023-09-26T18:16:19.859Z,99455.13
2023-09-26T18:18:46.781Z,99449.41
2023-09-26T18:21:15.258Z,99455.78
2023-09-26T18:23:42.196Z,99451.41
2023-09-26T18:26:09.132Z,99450.00
2023-09-26T18:28:36.108Z,99463.59
2023-09-26T18:31:05.853Z,99464.75
2023-09-26T18:33:33.271Z,99462.28
2023-09-26T18:36:05.343Z,99464.16
2023-09-26T18:38:35.811Z,99459.53
2023-09-26T18:41:02.842Z,99459.41
2023-09-26T18:43:29.837Z,99465.97
2023-09-26T18:45:58.157Z,99465.38
2023-09-26T18:48:25.561Z,99467.56
2023-09-26T18:50:52.833Z,99470.09
2023-09-26T18:53:20.115Z,99467.81
2023-09-26T18:55:48.656Z,99471.16
2023-09-26T18:58:16.298Z,99471.03
2023-09-26T19:00:43.355Z,99464.25
2023-09-26T19:05:38.396Z,99464.63
2023-09-26T19:08:06.235Z,99470.31
2023-09-26T19:10:33.349Z,99471.28
2023-09-26T19:13:03.892Z,99472.94
2023-09-26T19:15:31.315Z,99478.59
2023-09-26T19:17:58.314Z,99476.97
2023-09-26T19:20:26.116Z,99484.38
2023-09-26T19:22:53.161Z,99487.75
2023-09-26T19:25:20.515Z,99485.34
2023-09-26T19:27:47.430Z,99485.41
2023-09-26T19:30:16.002Z,99486.50
2023-09-26T19:32:43.012Z,99495.00
2023-09-26T19:35:10.633Z,99499.47
2023-09-26T19:37:37.637Z,99507.97
2023-09-26T19:40:05.528Z,99503.97
2023-09-26T19:42:32.594Z,99501.47
2023-09-26T19:44:59.492Z,99500.31
2023-09-26T19:47:27.956Z,99497.84
2023-09-26T19:49:55.618Z,99500.84
2023-09-26T19:52:22.650Z,99500.66
2023-09-26T19:54:49.593Z,99494.66
2023-09-26T19:57:16.457Z,99509.72
2023-09-26T19:59:44.515Z,99496.28
2023-09-26T20:02:11.793Z,99488.16
2023-09-26T20:04:40.299Z,99499.47
2023-09-26T20:07:07.324Z,99498.47
2023-09-26T20:09:34.416Z,99497.97
2023-09-26T20:12:01.291Z,99488.84
2023-09-26T20:14:28.186Z,99494.31
2023-09-26T20:16:55.164Z,99482.81
2023-09-26T20:19:22.126Z,99480.28
2023-09-26T20:21:50.332Z,99489.72
2023-09-26T20:24:17.777Z,99482.94
2023-09-26T20:26:44.757Z,99474.97
2023-09-26T20:29:11.679Z,99471.50
2023-09-26T20:31:39.064Z,99487.75
2023-09-26T20:34:06.870Z,99481.94
2023-09-26T20:36:34.878Z,99485.91
2023-09-26T20:39:03.559Z,99481.53
2023-09-26T20:41:32.950Z,99484.38
2023-09-26T20:44:00.216Z,99478.56
2023-09-26T20:46:27.137Z,99480.22
2023-09-26T20:48:54.810Z,99472.59
2023-09-26T20:51:24.999Z,99475.28
2023-09-26T20:53:53.122Z,99464.47
2023-09-26T20:56:22.197Z,99469.97
2023-09-26T20:58:49.095Z,99472.25
2023-09-26T21:01:16.310Z,99480.19
2023-09-26T21:03:43.359Z,99477.47
2023-09-26T21:06:11.341Z,99484.69
2023-09-26T21:08:38.799Z,99486.13
2023-09-26T21:11:05.676Z,99491.22
2023-09-26T21:13:34.096Z,99479.41
2023-09-26T21:16:13.907Z,99488.72
2023-09-26T21:18:42.244Z,99478.47
2023-09-26T21:21:09.386Z,99485.69
2023-09-26T21:23:36.319Z,99486.53
2023-09-26T21:26:03.672Z,99484.69
2023-09-26T21:28:33.961Z,99490.94
2023-09-26T21:31:00.866Z,99482.00
2023-09-26T21:33:27.777Z,99481.31
2023-09-26T21:35:55.460Z,99468.00
2023-09-26T21:38:23.136Z,99468.44
2023-09-26T21:40:50.772Z,99475.50
2023-09-26T21:43:17.968Z,99472.94
2023-09-26T21:45:46.381Z,99473.66
2023-09-26T21:48:13.521Z,99483.56
2023-09-26T21:50:40.517Z,99485.19
2023-09-26T21:53:07.463Z,99490.63
2023-09-26T21:55:36.311Z,99488.75
2023-09-26T21:58:04.283Z,99497.13
2023-09-26T22:00:31.446Z,99492.25
2023-09-26T22:03:01.708Z,99493.19
2023-09-26T22:05:30.346Z,99502.59
2023-09-26T22:07:58.616Z,99507.53
2023-09-26T22:10:26.801Z,99502.53
2023-09-26T22:12:54.062Z,99509.72
2023-09-26T22:15:21.625Z,99509.41
2023-09-26T22:17:48.636Z,99514.56
2023-09-26T22:20:18.426Z,99519.28
2023-09-26T22:22:46.347Z,99523.09
2023-09-26T22:25:14.569Z,99496.63
2023-09-26T22:27:42.294Z,99495.28
2023-09-26T22:30:10.905Z,99493.91
2023-09-26T22:32:38.454Z,99497.00
2023-09-26T22:35:06.739Z,99507.16
2023-09-26T22:37:35.973Z,99510.66
2023-09-26T22:40:03.549Z,99511.88
2023-09-26T22:42:30.549Z,99508.03
2023-09-26T22:44:57.658Z,99510.13
2023-09-26T22:47:25.305Z,99499.63
2023-09-26T22:49:52.471Z,99499.03
2023-09-26T22:52:20.198Z,99506.34
2023-09-26T22:54:48.658Z,99494.44
2023-09-26T22:57:15.706Z,99488.94
2023-09-26T22:59:42.931Z,99501.97
2023-09-26T23:02:09.954Z,99503.66
2023-09-26T23:04:37.217Z,99511.41
2023-09-26T23:07:04.384Z,99508.19
2023-09-26T23:09:31.262Z,99505.06
2023-09-26T23:11:59.556Z,99502.00
2023-09-26T23:14:26.621Z,99500.09
2023-09-26T23:16:54.031Z,99493.16
2023-09-26T23:19:20.958Z,99481.19
2023-09-26T23:21:47.908Z,99490.75
2023-09-26T23:24:19.018Z,99495.84
2023-09-26T23:26:46.219Z,99487.63
2023-09-26T23:29:14.665Z,99489.03
2023-09-26T23:31:42.221Z,99494.34
2023-09-26T23:34:10.171Z,99490.75
2023-09-26T23:36:37.106Z,99489.72
2023-09-26T23:39:04.473Z,99497.25
2023-09-26T23:41:31.400Z,99497.88
2023-09-26T23:43:59.662Z,99492.59
2023-09-26T23:46:29.354Z,99503.94
2023-09-26T23:48:56.775Z,99511.72
2023-09-26T23:51:23.672Z,99509.34
2023-09-26T23:53:50.564Z,99509.88
2023-09-26T23:56:17.643Z,99513.06
2023-09-26T23:58:45.101Z,99507.09
